createdAt,value
2022-08-26T00:01:57.174Z,23.64
2022-08-26T00:04:26.133Z,23.63
2022-08-26T00:06:55.078Z,23.64
2022-08-26T00:09:24.947Z,23.64
2022-08-26T00:11:54.321Z,23.64
2022-08-26T00:14:27.011Z,23.65
2022-08-26T00:16:55.171Z,23.61
2022-08-26T00:19:22.316Z,23.63
2022-08-26T00:21:50.154Z,23.62
2022-08-26T00:24:20.938Z,23.54
2022-08-26T00:26:49.113Z,23.49
2022-08-26T00:29:16.850Z,23.43
2022-08-26T00:31:45.396Z,23.41
2022-08-26T00:34:15.362Z,23.41
2022-08-26T00:36:43.590Z,23.39
2022-08-26T00:39:11.092Z,23.38
2022-08-26T00:41:41.048Z,23.36
2022-08-26T00:44:11.246Z,23.33
2022-08-26T00:46:50.566Z,23.30
2022-08-26T00:49:37.648Z,23.28
2022-08-26T00:52:11.989Z,23.30
2022-08-26T00:54:47.012Z,23.29
2022-08-26T00:57:18.646Z,23.28
2022-08-26T00:59:53.031Z,23.24
2022-08-26T01:02:21.651Z,23.23
2022-08-26T01:04:57.945Z,23.23
2022-08-26T01:07:30.205Z,23.22
2022-08-26T01:10:03.329Z,23.20
2022-08-26T01:12:36.068Z,23.19
2022-08-26T01:15:10.122Z,23.18
2022-08-26T01:17:39.643Z,23.18
2022-08-26T01:20:53.564Z,23.15
2022-08-26T01:23:31.761Z,23.12
2022-08-26T01:26:19.897Z,23.11
2022-08-26T01:28:51.723Z,23.08
2022-08-26T01:31:25.054Z,23.06
2022-08-26T01:34:16.163Z,23.05
2022-08-26T01:36:47.931Z,23.04
2022-08-26T01:39:18.885Z,23.02
2022-08-26T01:41:47.715Z,22.98
2022-08-26T01:44:27.808Z,22.98
2022-08-26T01:46:58.813Z,23.00
2022-08-26T01:49:28.138Z,22.96
2022-08-26T01:51:59.478Z,22.95
2022-08-26T01:54:26.818Z,22.95
2022-08-26T01:56:55.876Z,22.91
2022-08-26T01:59:24.576Z,22.87
2022-08-26T02:01:52.878Z,22.85
2022-08-26T02:04:30.931Z,22.82
2022-08-26T02:06:59.383Z,22.81
2022-08-26T02:09:26.814Z,22.78
2022-08-26T02:11:54.536Z,22.75
2022-08-26T02:14:28.120Z,22.74
2022-08-26T02:16:56.688Z,22.76
2022-08-26T02:19:31.862Z,22.73
2022-08-26T02:22:04.230Z,22.74
2022-08-26T02:24:56.536Z,22.73
2022-08-26T02:27:32.371Z,22.72
2022-08-26T02:30:15.067Z,22.74
2022-08-26T02:32:44.705Z,22.72
2022-08-26T02:35:18.169Z,22.71
2022-08-26T02:37:49.507Z,22.70
2022-08-26T02:40:22.698Z,22.68
2022-08-26T02:42:50.243Z,22.66
2022-08-26T02:45:23.232Z,22.64
2022-08-26T02:47:52.389Z,22.62
2022-08-26T02:50:20.502Z,22.61
2022-08-26T02:52:48.677Z,22.59
2022-08-26T02:55:16.707Z,22.58
2022-08-26T02:57:43.971Z,22.57
2022-08-26T03:00:14.868Z,22.58
2022-08-26T03:02:42.183Z,22.58
2022-08-26T03:05:10.926Z,22.55
2022-08-26T03:07:38.511Z,22.55
2022-08-26T03:10:08.691Z,22.50
2022-08-26T03:12:36.250Z,22.48
2022-08-26T03:15:16.416Z,22.45
2022-08-26T03:17:47.976Z,22.42
2022-08-26T03:20:17.465Z,22.43
2022-08-26T03:22:45.588Z,22.40
2022-08-26T03:25:16.575Z,22.37
2022-08-26T03:27:44.118Z,22.36
2022-08-26T03:30:32.436Z,22.34
2022-08-26T03:33:00.753Z,22.34
2022-08-26T03:35:28.574Z,22.35
2022-08-26T03:37:55.519Z,22.32
2022-08-26T03:40:23.182Z,22.29
2022-08-26T03:42:51.113Z,22.26
2022-08-26T03:45:19.780Z,22.25
2022-08-26T03:47:48.074Z,22.26
2022-08-26T03:50:23.030Z,22.24
2022-08-26T03:52:54.193Z,22.25
2022-08-26T03:55:26.033Z,22.25
2022-08-26T03:57:54.536Z,22.22
2022-08-26T04:00:22.376Z,22.21
2022-08-26T04:02:51.260Z,22.18
2022-08-26T04:05:23.197Z,22.16
2022-08-26T04:07:51.788Z,22.15
2022-08-26T04:10:26.453Z,22.17
2022-08-26T04:12:59.423Z,22.16
2022-08-26T04:15:27.265Z,22.16
2022-08-26T04:17:56.074Z,22.13
2022-08-26T04:20:25.620Z,22.12
2022-08-26T04:22:52.605Z,22.10
2022-08-26T04:25:20.655Z,22.09
2022-08-26T04:27:48.507Z,22.10
2022-08-26T04:30:16.572Z,22.08
2022-08-26T04:32:44.924Z,22.09
2022-08-26T04:35:11.946Z,22.09
2022-08-26T04:37:38.851Z,22.07
2022-08-26T04:40:11.197Z,22.07
2022-08-26T04:42:38.340Z,22.08
2022-08-26T04:45:10.130Z,22.07
2022-08-26T04:47:37.481Z,22.07
2022-08-26T04:50:06.946Z,22.06
2022-08-26T04:52:36.301Z,22.08
2022-08-26T04:55:04.446Z,22.12
2022-08-26T04:57:33.853Z,22.12
2022-08-26T05:00:00.711Z,22.13
2022-08-26T05:02:27.995Z,22.12
2022-08-26T05:04:55.105Z,22.16
2022-08-26T05:07:21.899Z,22.18
2022-08-26T05:09:49.246Z,22.18
2022-08-26T05:12:16.279Z,22.17
2022-08-26T05:14:43.367Z,22.19
2022-08-26T05:17:10.276Z,22.24
2022-08-26T05:19:42.934Z,22.29
2022-08-26T05:22:10.182Z,22.33
2022-08-26T05:24:41.123Z,22.36
2022-08-26T05:27:11.856Z,22.37
2022-08-26T05:29:40.697Z,22.38
2022-08-26T05:32:07.656Z,22.40
2022-08-26T05:34:34.687Z,22.43
2022-08-26T05:37:01.811Z,22.45
2022-08-26T05:39:29.296Z,22.44
2022-08-26T05:41:56.509Z,22.46
2022-08-26T05:44:23.883Z,22.50
2022-08-26T05:46:51.851Z,22.55
2022-08-26T05:49:19.397Z,22.58
2022-08-26T05:51:47.949Z,22.62
2022-08-26T05:54:22.121Z,22.65
2022-08-26T05:56:51.852Z,22.65
2022-08-26T05:59:24.100Z,22.64
2022-08-26T06:01:54.968Z,22.68
2022-08-26T06:04:24.990Z,22.75
2022-08-26T06:06:54.489Z,22.79
2022-08-26T06:09:21.468Z,22.81
2022-08-26T06:11:48.667Z,22.84
2022-08-26T06:14:17.245Z,22.88
2022-08-26T06:16:45.369Z,22.93
2022-08-26T06:19:15.791Z,22.97
2022-08-26T06:21:47.821Z,23.00
2022-08-26T06:24:39.581Z,23.01
2022-08-26T06:27:09.917Z,23.05
2022-08-26T06:29:38.904Z,23.13
2022-08-26T06:32:06.927Z,23.16
2022-08-26T06:34:36.213Z,23.15
2022-08-26T06:37:03.701Z,23.15
2022-08-26T06:39:31.902Z,23.18
2022-08-26T06:42:00.820Z,23.18
2022-08-26T06:44:30.621Z,23.21
2022-08-26T06:46:59.443Z,23.25
2022-08-26T06:49:27.606Z,23.24
2022-08-26T06:51:59.510Z,23.31
2022-08-26T06:54:31.568Z,23.39
2022-08-26T06:56:59.590Z,23.42
2022-08-26T06:59:27.024Z,23.46
2022-08-26T07:01:54.685Z,23.51
2022-08-26T07:04:24.494Z,23.56
2022-08-26T07:06:54.172Z,23.58
2022-08-26T07:09:26.054Z,23.58
2022-08-26T07:11:56.146Z,23.62
2022-08-26T07:14:24.411Z,23.63
2022-08-26T07:16:52.040Z,23.65
2022-08-26T07:19:30.354Z,23.70
2022-08-26T07:22:04.066Z,23.72
2022-08-26T07:24:38.460Z,23.76
2022-08-26T07:27:10.347Z,23.79
2022-08-26T07:29:40.263Z,23.83
2022-08-26T07:32:08.325Z,23.84
2022-08-26T07:34:37.720Z,23.90
2022-08-26T07:37:06.038Z,23.96
2022-08-26T07:39:36.319Z,24.02
2022-08-26T07:42:08.067Z,24.05
2022-08-26T07:44:37.724Z,24.08
2022-08-26T07:47:10.173Z,24.09
2022-08-26T07:49:38.652Z,24.14
2022-08-26T07:52:06.675Z,24.22
2022-08-26T07:54:33.622Z,24.26
2022-08-26T07:57:01.568Z,24.32
2022-08-26T07:59:32.055Z,24.35
2022-08-26T08:02:00.109Z,24.40
2022-08-26T08:04:27.591Z,24.44
2022-08-26T08:06:56.039Z,24.48
2022-08-26T08:09:24.128Z,24.52
2022-08-26T08:11:53.021Z,24.57
2022-08-26T08:14:20.506Z,24.65
2022-08-26T08:16:54.760Z,24.72
2022-08-26T08:19:23.814Z,24.80
2022-08-26T08:21:52.078Z,24.88
2022-08-26T08:24:19.151Z,24.92
2022-08-26T08:26:46.226Z,24.98
2022-08-26T08:29:13.728Z,25.03
2022-08-26T08:31:58.231Z,25.10
2022-08-26T08:34:28.843Z,25.18
2022-08-26T08:36:57.472Z,25.22
2022-08-26T08:39:26.319Z,25.26
2022-08-26T08:42:35.114Z,25.31
2022-08-26T08:45:24.351Z,25.37
2022-08-26T08:48:04.357Z,25.41
2022-08-26T08:50:45.791Z,25.44
2022-08-26T08:53:17.705Z,25.49
2022-08-26T08:56:06.876Z,25.54
2022-08-26T08:59:00.765Z,25.60
2022-08-26T09:01:39.774Z,25.66
2022-08-26T09:04:25.226Z,25.73
2022-08-26T09:09:39.199Z,25.82
2022-08-26T09:12:17.199Z,25.91
2022-08-26T09:14:51.112Z,25.94
2022-08-26T09:18:23.245Z,26.00
2022-08-26T09:21:05.250Z,26.04
2022-08-26T09:23:37.546Z,26.09
2022-08-26T09:26:19.881Z,26.10
2022-08-26T09:29:08.946Z,26.12
2022-08-26T09:31:39.210Z,26.19
2022-08-26T09:34:23.105Z,26.22
2022-08-26T09:36:59.519Z,26.29
2022-08-26T09:39:39.589Z,26.25
2022-08-26T09:42:09.433Z,26.28
2022-08-26T09:45:08.383Z,26.33
2022-08-26T09:47:45.756Z,26.32
2022-08-26T09:50:30.991Z,26.31
2022-08-26T09:53:36.651Z,26.36
2022-08-26T09:56:21.761Z,26.44
2022-08-26T09:58:50.722Z,26.51
2022-08-26T10:01:23.672Z,26.47
2022-08-26T10:03:51.971Z,26.52
2022-08-26T10:06:20.880Z,26.61
2022-08-26T10:08:57.425Z,26.71
2022-08-26T10:11:30.522Z,26.75
2022-08-26T10:14:07.933Z,26.77
2022-08-26T10:17:14.651Z,26.82
2022-08-26T10:19:56.074Z,26.84
2022-08-26T10:22:50.082Z,26.86
2022-08-26T10:25:27.636Z,26.88
2022-08-26T10:28:35.677Z,26.88
2022-08-26T10:31:27.374Z,26.95
2022-08-26T10:33:58.897Z,27.04
2022-08-26T10:39:58.851Z,27.22
2022-08-26T10:43:07.047Z,27.25
2022-08-26T10:45:45.001Z,27.31
2022-08-26T10:48:36.155Z,27.37
2022-08-26T10:51:04.996Z,27.39
2022-08-26T10:53:57.744Z,27.41
2022-08-26T10:56:53.525Z,27.41
2022-08-26T10:59:53.587Z,27.39
2022-08-26T11:02:39.592Z,27.38
2022-08-26T11:05:22.547Z,27.36
2022-08-26T11:07:56.050Z,27.36
2022-08-26T11:10:23.885Z,27.40
2022-08-26T11:13:03.735Z,27.44
2022-08-26T11:15:31.169Z,27.53
2022-08-26T11:18:04.110Z,27.60
2022-08-26T11:20:42.338Z,27.67
2022-08-26T11:23:12.363Z,27.71
2022-08-26T11:26:37.682Z,27.78
2022-08-26T11:29:04.679Z,27.86
2022-08-26T11:31:39.733Z,27.86
2022-08-26T11:34:13.129Z,27.94
2022-08-26T11:36:54.364Z,28.03
2022-08-26T11:39:36.570Z,28.09
2022-08-26T11:42:27.660Z,28.05
2022-08-26T11:44:58.156Z,28.06
2022-08-26T11:47:30.143Z,28.04
2022-08-26T11:50:19.777Z,28.10
2022-08-26T11:53:01.695Z,28.08
2022-08-26T11:55:32.346Z,28.08
2022-08-26T11:58:04.801Z,28.09
2022-08-26T12:00:58.645Z,28.08
2022-08-26T12:03:47.134Z,28.05
2022-08-26T12:06:30.464Z,28.01
2022-08-26T12:09:03.429Z,28.08
2022-08-26T12:11:37.069Z,28.13
2022-08-26T12:14:27.883Z,28.12
2022-08-26T12:16:55.121Z,28.09
2022-08-26T12:19:32.907Z,28.06
2022-08-26T12:22:34.592Z,28.12
2022-08-26T12:25:08.496Z,28.22
2022-08-26T12:27:45.409Z,28.24
2022-08-26T12:30:20.120Z,28.26
2022-08-26T12:33:03.171Z,28.28
2022-08-26T12:35:48.477Z,28.30
2022-08-26T12:38:20.133Z,28.31
2022-08-26T12:40:50.288Z,28.32
2022-08-26T12:43:41.050Z,28.36
2022-08-26T12:46:15.913Z,28.43
2022-08-26T12:48:47.555Z,28.41
2022-08-26T12:51:26.547Z,28.39
2022-08-26T12:53:54.378Z,28.34
2022-08-26T12:56:39.660Z,28.29
2022-08-26T12:59:18.083Z,28.30
2022-08-26T13:01:46.803Z,28.30
2022-08-26T13:04:38.364Z,28.28
2022-08-26T13:07:23.319Z,28.32
2022-08-26T13:09:57.450Z,28.35
2022-08-26T13:12:35.490Z,28.35
2022-08-26T13:15:05.764Z,28.34
2022-08-26T13:17:34.996Z,28.34
2022-08-26T13:20:04.077Z,28.33
2022-08-26T13:22:31.879Z,28.35
2022-08-26T13:24:59.350Z,28.36
2022-08-26T13:27:27.510Z,28.40
2022-08-26T13:29:57.669Z,28.49
2022-08-26T13:32:27.244Z,28.60
2022-08-26T13:34:57.496Z,28.69
2022-08-26T13:37:35.184Z,28.77
2022-08-26T13:40:06.715Z,28.85
2022-08-26T13:42:34.479Z,28.91
2022-08-26T13:45:02.288Z,28.97
2022-08-26T13:47:29.826Z,29.00
2022-08-26T13:49:56.775Z,29.03
2022-08-26T13:52:30.235Z,29.06
2022-08-26T13:55:00.621Z,29.04
2022-08-26T13:57:30.122Z,29.05
2022-08-26T13:59:59.146Z,29.04
2022-08-26T14:02:27.992Z,29.02
2022-08-26T14:04:55.973Z,29.02
2022-08-26T14:07:23.070Z,29.03
2022-08-26T14:09:50.509Z,29.00
2022-08-26T14:12:17.490Z,28.99
2022-08-26T14:14:44.380Z,29.05
2022-08-26T14:17:18.753Z,29.09
2022-08-26T14:19:48.584Z,29.13
2022-08-26T14:22:19.085Z,29.17
2022-08-26T14:24:46.162Z,29.20
2022-08-26T14:27:13.666Z,29.26
2022-08-26T14:29:41.304Z,29.23
2022-08-26T14:32:22.953Z,29.27
2022-08-26T14:34:50.786Z,29.34
2022-08-26T14:37:19.091Z,29.36
2022-08-26T14:39:47.059Z,29.39
2022-08-26T14:42:21.265Z,29.41
2022-08-26T14:44:56.419Z,29.39
2022-08-26T14:47:23.728Z,29.21
2022-08-26T14:49:51.654Z,29.04
2022-08-26T14:52:18.827Z,28.84
2022-08-26T14:54:45.939Z,28.45
2022-08-26T14:57:15.349Z,28.18
2022-08-26T14:59:50.199Z,28.02
2022-08-26T15:02:27.700Z,27.72
2022-08-26T15:05:02.154Z,27.47
2022-08-26T15:07:29.486Z,27.45
2022-08-26T15:09:56.447Z,27.31
2022-08-26T15:12:23.347Z,27.03
2022-08-26T15:14:50.379Z,26.89
2022-08-26T15:17:17.623Z,26.94
2022-08-26T15:19:44.486Z,26.91
2022-08-26T15:22:11.527Z,26.84
2022-08-26T15:24:38.497Z,26.85
2022-08-26T15:27:05.514Z,26.82
2022-08-26T15:29:33.199Z,26.72
2022-08-26T15:32:04.608Z,26.69
2022-08-26T15:34:32.043Z,26.56
2022-08-26T15:36:59.127Z,26.47
2022-08-26T15:39:25.983Z,26.45
2022-08-26T15:41:52.938Z,26.43
2022-08-26T15:44:20.112Z,26.25
2022-08-26T15:46:50.092Z,25.93
2022-08-26T15:49:18.666Z,25.43
2022-08-26T15:51:48.233Z,24.56
2022-08-26T15:54:19.604Z,23.95
2022-08-26T15:56:50.576Z,23.61
2022-08-26T15:59:19.282Z,23.36
2022-08-26T16:01:46.592Z,23.16
2022-08-26T16:04:14.244Z,23.04
2022-08-26T16:06:42.519Z,22.95
2022-08-26T16:09:10.362Z,22.83
2022-08-26T16:11:40.968Z,22.85
2022-08-26T16:14:08.766Z,22.84
2022-08-26T16:16:40.901Z,22.72
2022-08-26T16:19:09.043Z,22.72
2022-08-26T16:21:36.248Z,22.68
2022-08-26T16:24:04.311Z,22.63
2022-08-26T16:26:34.887Z,22.52
2022-08-26T16:29:06.443Z,22.49
2022-08-26T16:31:34.153Z,22.43
2022-08-26T16:34:01.384Z,22.41
2022-08-26T16:36:28.258Z,22.34
2022-08-26T16:38:56.645Z,22.32
2022-08-26T16:41:27.162Z,22.34
2022-08-26T16:43:55.844Z,22.37
2022-08-26T16:46:26.228Z,22.42
2022-08-26T16:48:55.251Z,22.43
2022-08-26T16:51:27.170Z,22.40
2022-08-26T16:53:56.580Z,22.37
2022-08-26T16:56:34.009Z,22.38
2022-08-26T16:59:05.244Z,22.43
2022-08-26T17:01:32.482Z,22.48
2022-08-26T17:03:59.727Z,22.51
2022-08-26T17:06:26.775Z,22.57
2022-08-26T17:08:53.635Z,22.62
2022-08-26T17:11:20.683Z,22.64
2022-08-26T17:13:47.643Z,22.62
2022-08-26T17:16:15.663Z,22.61
2022-08-26T17:18:42.874Z,22.54
2022-08-26T17:21:13.063Z,22.48
2022-08-26T17:23:42.473Z,22.45
2022-08-26T17:26:12.239Z,22.53
2022-08-26T17:28:40.263Z,22.59
2022-08-26T17:31:10.174Z,22.63
2022-08-26T17:33:38.361Z,22.65
2022-08-26T17:36:07.866Z,22.67
2022-08-26T17:38:36.546Z,22.69
2022-08-26T17:41:12.249Z,22.74
2022-08-26T17:43:40.347Z,22.76
2022-08-26T17:46:12.344Z,22.79
2022-08-26T17:48:40.703Z,22.81
2022-08-26T17:51:12.575Z,22.80
2022-08-26T17:53:41.282Z,22.75
2022-08-26T17:56:11.072Z,22.76
2022-08-26T17:58:38.857Z,22.76
2022-08-26T18:01:07.064Z,22.77
2022-08-26T18:03:35.274Z,22.73
2022-08-26T18:06:03.707Z,22.72
2022-08-26T18:08:30.762Z,22.75
2022-08-26T18:10:57.700Z,22.75
2022-08-26T18:13:25.139Z,22.73
2022-08-26T18:15:52.230Z,22.69
2022-08-26T18:18:19.048Z,22.67
2022-08-26T18:20:45.928Z,22.57
2022-08-26T18:23:18.908Z,22.49
2022-08-26T18:25:45.802Z,22.41
2022-08-26T18:28:12.866Z,22.40
2022-08-26T18:30:43.000Z,22.38
2022-08-26T18:33:11.403Z,22.40
2022-08-26T18:35:43.802Z,22.41
2022-08-26T18:38:13.960Z,22.34
2022-08-26T18:40:44.938Z,22.34
2022-08-26T18:43:12.258Z,22.35
2022-08-26T18:45:39.142Z,22.36
2022-08-26T18:48:06.142Z,22.36
2022-08-26T18:50:33.439Z,22.41
2022-08-26T18:53:02.461Z,22.43
2022-08-26T18:55:29.361Z,22.38
2022-08-26T18:57:56.443Z,22.31
2022-08-26T19:00:23.907Z,22.30
2022-08-26T19:02:51.890Z,22.26
2022-08-26T19:05:19.766Z,22.27
2022-08-26T19:07:47.886Z,22.26
2022-08-26T19:10:15.310Z,22.27
2022-08-26T19:12:42.576Z,22.29
2022-08-26T19:15:11.583Z,22.31
2022-08-26T19:17:38.478Z,22.36
2022-08-26T19:20:06.189Z,22.36
2022-08-26T19:22:33.565Z,22.35
2022-08-26T19:25:01.299Z,22.37
2022-08-26T19:27:28.356Z,22.38
2022-08-26T19:29:57.334Z,22.38
2022-08-26T19:32:25.297Z,22.41
2022-08-26T19:34:53.022Z,22.45
2022-08-26T19:37:20.971Z,22.48
2022-08-26T19:39:48.306Z,22.50
2022-08-26T19:42:16.558Z,22.47
2022-08-26T19:45:02.999Z,22.45
2022-08-26T19:47:30.217Z,22.43
2022-08-26T19:49:57.654Z,22.49
2022-08-26T19:52:29.909Z,22.54
2022-08-26T19:54:58.593Z,22.51
2022-08-26T19:57:25.739Z,22.55
2022-08-26T19:59:52.579Z,22.59
2022-08-26T20:02:20.230Z,22.61
2022-08-26T20:04:47.417Z,22.58
2022-08-26T20:07:18.142Z,22.61
2022-08-26T20:09:48.479Z,22.63
2022-08-26T20:12:17.329Z,22.62
2022-08-26T20:14:44.278Z,22.62
2022-08-26T20:17:12.711Z,22.59
2022-08-26T20:19:58.060Z,22.57
2022-08-26T20:22:25.509Z,22.59
2022-08-26T20:24:52.724Z,22.55
2022-08-26T20:27:19.806Z,22.56
2022-08-26T20:29:47.387Z,22.53
2022-08-26T20:32:15.410Z,22.56
2022-08-26T20:34:42.839Z,22.62
2022-08-26T20:37:11.205Z,22.64
2022-08-26T20:39:38.294Z,22.65
2022-08-26T20:42:06.835Z,22.69
2022-08-26T20:44:55.002Z,22.68
2022-08-26T20:47:22.624Z,22.67
2022-08-26T20:49:52.548Z,22.67
2022-08-26T20:52:20.364Z,22.68
2022-08-26T20:54:47.278Z,22.64
2022-08-26T20:57:14.752Z,22.61
2022-08-26T20:59:41.957Z,22.59
2022-08-26T21:02:09.190Z,22.55
2022-08-26T21:04:36.321Z,22.50
2022-08-26T21:07:03.210Z,22.49
2022-08-26T21:09:31.325Z,22.46
2022-08-26T21:11:59.223Z,22.47
2022-08-26T21:14:26.170Z,22.44
2022-08-26T21:16:53.605Z,22.41
2022-08-26T21:19:20.804Z,22.39
2022-08-26T21:21:48.793Z,22.36
2022-08-26T21:24:16.460Z,22.40
2022-08-26T21:26:44.364Z,22.43
2022-08-26T21:29:13.516Z,22.41
2022-08-26T21:31:46.026Z,22.42
2022-08-26T21:34:19.038Z,22.41
2022-08-26T21:36:48.364Z,22.40
2022-08-26T21:39:16.776Z,22.39
2022-08-26T21:41:45.686Z,22.36
2022-08-26T21:44:15.014Z,22.28
2022-08-26T21:46:43.981Z,22.27
2022-08-26T21:49:15.817Z,22.30
2022-08-26T21:51:46.571Z,22.28
2022-08-26T21:54:15.208Z,22.28
2022-08-26T21:56:46.784Z,22.27
2022-08-26T21:59:17.181Z,22.28
2022-08-26T22:01:44.261Z,22.30
2022-08-26T22:04:11.183Z,22.26
2022-08-26T22:06:46.175Z,22.22
2022-08-26T22:09:16.735Z,22.19
2022-08-26T22:11:43.896Z,22.14
2022-08-26T22:14:11.706Z,22.08
2022-08-26T22:16:39.332Z,22.07
2022-08-26T22:19:06.825Z,22.03
2022-08-26T22:21:35.691Z,22.02
2022-08-26T22:24:04.702Z,21.99
2022-08-26T22:26:33.994Z,21.97
2022-08-26T22:29:02.117Z,21.95
2022-08-26T22:31:37.318Z,21.94
2022-08-26T22:34:13.268Z,21.93
2022-08-26T22:36:44.641Z,21.98
2022-08-26T22:39:19.441Z,21.99
2022-08-26T22:41:48.450Z,21.97
2022-08-26T22:44:17.545Z,21.93
2022-08-26T22:46:46.081Z,21.89
2022-08-26T22:49:17.403Z,21.89
2022-08-26T22:51:46.450Z,21.92
2022-08-26T22:54:14.736Z,21.92
2022-08-26T22:56:44.019Z,21.91
2022-08-26T22:59:12.475Z,21.90
2022-08-26T23:01:43.049Z,21.86
2022-08-26T23:04:11.122Z,21.84
2022-08-26T23:06:43.292Z,21.85
2022-08-26T23:09:18.214Z,21.86
2022-08-26T23:11:47.777Z,21.82
2022-08-26T23:14:15.552Z,21.79
2022-08-26T23:16:43.131Z,21.77
2022-08-26T23:19:13.556Z,21.75
2022-08-26T23:21:40.878Z,21.73
2022-08-26T23:24:09.398Z,21.71
2022-08-26T23:26:38.020Z,21.72
2022-08-26T23:29:07.265Z,21.73
2022-08-26T23:31:36.131Z,21.71
2022-08-26T23:34:21.634Z,21.67
2022-08-26T23:36:49.199Z,21.65
2022-08-26T23:39:16.842Z,21.56
2022-08-26T23:41:43.766Z,21.54
2022-08-26T23:44:11.602Z,21.56
2022-08-26T23:46:38.864Z,21.54
2022-08-26T23:49:05.859Z,21.47
2022-08-26T23:51:51.369Z,21.48
2022-08-26T23:54:19.565Z,21.46
2022-08-26T23:56:46.807Z,21.44
2022-08-26T23:59:13.743Z,21.39
